sensor_id;sensor_type;location;lat;lon;timestamp;temperature;humidity
16198;DHT22;8206;51.440;6.914;2022-10-18T00:02:24;15.60;1.00
16198;DHT22;8206;51.440;6.914;2022-10-18T00:04:51;15.60;1.00
16198;DHT22;8206;51.440;6.914;2022-10-18T00:07:19;15.70;99.90
16198;DHT22;8206;51.440;6.914;2022-10-18T00:09:46;15.70;1.00
16198;DHT22;8206;51.440;6.914;2022-10-18T00:12:13;15.70;1.00
16198;DHT22;8206;51.440;6.914;2022-10-18T00:14:39;15.70;99.90
16198;DHT22;8206;51.440;6.914;2022-10-18T00:17:06;15.60;1.00
16198;DHT22;8206;51.440;6.914;2022-10-18T00:19:33;15.60;1.00
16198;DHT22;8206;51.440;6.914;2022-10-18T00:22:00;15.60;99.50
16198;DHT22;8206;51.440;6.914;2022-10-18T00:24:28;15.60;1.00
16198;DHT22;8206;51.440;6.914;2022-10-18T00:26:54;15.60;1.00
16198;DHT22;8206;51.440;6.914;2022-10-18T00:29:21;15.60;1.00
16198;DHT22;8206;51.440;6.914;2022-10-18T00:31:48;15.60;1.00
16198;DHT22;8206;51.440;6.914;2022-10-18T00:34:15;15.60;99.90
16198;DHT22;8206;51.440;6.914;2022-10-18T00:36:44;15.60;1.00
16198;DHT22;8206;51.440;6.914;2022-10-18T00:39:14;15.60;1.00
16198;DHT22;8206;51.440;6.914;2022-10-18T00:41:43;15.60;99.90
16198;DHT22;8206;51.440;6.914;2022-10-18T00:47:15;15.70;1.00
16198;DHT22;8206;51.440;6.914;2022-10-18T00:49:45;15.60;1.00
16198;DHT22;8206;51.440;6.914;2022-10-18T00:52:17;15.60;99.90
16198;DHT22;8206;51.440;6.914;2022-10-18T00:54:46;15.60;1.00
16198;DHT22;8206;51.440;6.914;2022-10-18T00:57:15;15.60;1.00
16198;DHT22;8206;51.440;6.914;2022-10-18T00:59:43;15.60;1.00
16198;DHT22;8206;51.440;6.914;2022-10-18T01:02:10;15.60;99.90
16198;DHT22;8206;51.440;6.914;2022-10-18T01:04:39;15.60;99.90
16198;DHT22;8206;51.440;6.914;2022-10-18T01:07:17;15.70;99.90
16198;DHT22;8206;51.440;6.914;2022-10-18T01:09:58;15.60;1.00
16198;DHT22;8206;51.440;6.914;2022-10-18T01:12:36;15.60;99.90
16198;DHT22;8206;51.440;6.914;2022-10-18T01:15:10;15.70;1.00
16198;DHT22;8206;51.440;6.914;2022-10-18T01:17:47;15.70;99.90
16198;DHT22;8206;51.440;6.914;2022-10-18T01:20:34;15.70;23.70
16198;DHT22;8206;51.440;6.914;2022-10-18T01:23:07;15.70;1.00
16198;DHT22;8206;51.440;6.914;2022-10-18T01:25:44;15.70;99.90
16198;DHT22;8206;51.440;6.914;2022-10-18T01:28:33;15.80;1.00
16198;DHT22;8206;51.440;6.914;2022-10-18T01:31:06;15.80;99.90
16198;DHT22;8206;51.440;6.914;2022-10-18T01:33:38;15.80;1.00
16198;DHT22;8206;51.440;6.914;2022-10-18T01:36:12;15.80;1.00
16198;DHT22;8206;51.440;6.914;2022-10-18T01:38:40;15.80;99.90
16198;DHT22;8206;51.440;6.914;2022-10-18T01:41:09;15.80;1.00
16198;DHT22;8206;51.440;6.914;2022-10-18T01:43:38;15.80;1.00
16198;DHT22;8206;51.440;6.914;2022-10-18T01:46:07;15.80;1.00
16198;DHT22;8206;51.440;6.914;2022-10-18T01:48:35;15.70;1.00
16198;DHT22;8206;51.440;6.914;2022-10-18T01:51:02;15.70;1.00
16198;DHT22;8206;51.440;6.914;2022-10-18T01:53:31;15.60;98.50
16198;DHT22;8206;51.440;6.914;2022-10-18T01:56:13;15.60;1.00
16198;DHT22;8206;51.440;6.914;2022-10-18T01:58:47;15.60;1.00
16198;DHT22;8206;51.440;6.914;2022-10-18T02:01:20;15.60;1.00
16198;DHT22;8206;51.440;6.914;2022-10-18T02:03:53;15.60;1.00
16198;DHT22;8206;51.440;6.914;2022-10-18T02:06:25;15.60;96.00
16198;DHT22;8206;51.440;6.914;2022-10-18T02:08:58;15.60;1.00
16198;DHT22;8206;51.440;6.914;2022-10-18T02:11:26;15.60;1.00
16198;DHT22;8206;51.440;6.914;2022-10-18T02:13:57;15.60;99.90
16198;DHT22;8206;51.440;6.914;2022-10-18T02:16:30;15.50;99.90
16198;DHT22;8206;51.440;6.914;2022-10-18T02:19:04;15.50;99.90
16198;DHT22;8206;51.440;6.914;2022-10-18T02:21:31;15.40;1.00
16198;DHT22;8206;51.440;6.914;2022-10-18T02:24:01;15.50;1.00
16198;DHT22;8206;51.440;6.914;2022-10-18T02:26:28;15.40;10.60
16198;DHT22;8206;51.440;6.914;2022-10-18T02:28:55;15.50;1.00
16198;DHT22;8206;51.440;6.914;2022-10-18T02:31:27;15.50;1.00
16198;DHT22;8206;51.440;6.914;2022-10-18T02:33:59;15.50;1.00
16198;DHT22;8206;51.440;6.914;2022-10-18T02:36:32;15.50;1.00
16198;DHT22;8206;51.440;6.914;2022-10-18T02:39:05;15.40;1.00
16198;DHT22;8206;51.440;6.914;2022-10-18T02:41:33;15.50;1.00
16198;DHT22;8206;51.440;6.914;2022-10-18T02:44:00;15.50;1.00
16198;DHT22;8206;51.440;6.914;2022-10-18T02:46:28;15.50;1.00
16198;DHT22;8206;51.440;6.914;2022-10-18T02:48:54;15.50;99.90
16198;DHT22;8206;51.440;6.914;2022-10-18T02:51:21;15.50;1.00
16198;DHT22;8206;51.440;6.914;2022-10-18T02:53:49;15.50;4.70
16198;DHT22;8206;51.440;6.914;2022-10-18T02:56:16;15.50;99.90
16198;DHT22;8206;51.440;6.914;2022-10-18T02:58:42;15.50;99.90
16198;DHT22;8206;51.440;6.914;2022-10-18T03:01:09;15.60;99.90
16198;DHT22;8206;51.440;6.914;2022-10-18T03:03:37;15.60;1.00
16198;DHT22;8206;51.440;6.914;2022-10-18T03:06:04;15.60;1.00
16198;DHT22;8206;51.440;6.914;2022-10-18T03:08:31;15.60;99.90
16198;DHT22;8206;51.440;6.914;2022-10-18T03:10:58;15.70;1.00
16198;DHT22;8206;51.440;6.914;2022-10-18T03:13:24;15.70;99.90
16198;DHT22;8206;51.440;6.914;2022-10-18T03:15:51;15.70;1.00
16198;DHT22;8206;51.440;6.914;2022-10-18T03:18:18;15.70;1.00
16198;DHT22;8206;51.440;6.914;2022-10-18T03:20:46;15.70;99.90
16198;DHT22;8206;51.440;6.914;2022-10-18T03:23:13;15.80;1.00
16198;DHT22;8206;51.440;6.914;2022-10-18T03:25:39;15.80;1.00
16198;DHT22;8206;51.440;6.914;2022-10-18T03:28:06;15.80;99.90
16198;DHT22;8206;51.440;6.914;2022-10-18T03:30:33;15.80;99.90
16198;DHT22;8206;51.440;6.914;2022-10-18T03:33:00;15.80;99.90
16198;DHT22;8206;51.440;6.914;2022-10-18T03:35:26;15.80;99.90
16198;DHT22;8206;51.440;6.914;2022-10-18T03:37:54;15.80;99.90
16198;DHT22;8206;51.440;6.914;2022-10-18T03:40:21;15.80;99.90
16198;DHT22;8206;51.440;6.914;2022-10-18T03:42:48;15.80;1.00
16198;DHT22;8206;51.440;6.914;2022-10-18T03:45:15;15.80;1.00
16198;DHT22;8206;51.440;6.914;2022-10-18T03:47:41;15.70;1.00
16198;DHT22;8206;51.440;6.914;2022-10-18T03:50:08;15.70;1.00
16198;DHT22;8206;51.440;6.914;2022-10-18T03:52:35;15.70;99.90
16198;DHT22;8206;51.440;6.914;2022-10-18T03:55:04;15.70;1.00
16198;DHT22;8206;51.440;6.914;2022-10-18T03:57:31;15.70;1.00
16198;DHT22;8206;51.440;6.914;2022-10-18T03:59:57;15.70;1.00
16198;DHT22;8206;51.440;6.914;2022-10-18T04:02:24;15.70;1.00
16198;DHT22;8206;51.440;6.914;2022-10-18T04:04:51;15.60;88.20
16198;DHT22;8206;51.440;6.914;2022-10-18T04:07:18;15.70;99.90
16198;DHT22;8206;51.440;6.914;2022-10-18T04:09:45;15.60;99.90
16198;DHT22;8206;51.440;6.914;2022-10-18T04:12:13;15.60;1.00
16198;DHT22;8206;51.440;6.914;2022-10-18T04:14:39;15.60;1.00
16198;DHT22;8206;51.440;6.914;2022-10-18T04:17:06;15.70;1.00
16198;DHT22;8206;51.440;6.914;2022-10-18T04:19:33;15.70;98.90
16198;DHT22;8206;51.440;6.914;2022-10-18T04:22:00;15.70;99.90
16198;DHT22;8206;51.440;6.914;2022-10-18T04:24:26;15.70;99.90
16198;DHT22;8206;51.440;6.914;2022-10-18T04:26:53;15.70;99.90
16198;DHT22;8206;51.440;6.914;2022-10-18T04:29:21;15.70;99.90
16198;DHT22;8206;51.440;6.914;2022-10-18T04:31:48;15.70;99.90
16198;DHT22;8206;51.440;6.914;2022-10-18T04:34:15;15.70;99.90
16198;DHT22;8206;51.440;6.914;2022-10-18T04:36:42;15.80;99.90
16198;DHT22;8206;51.440;6.914;2022-10-18T04:39:08;15.70;1.00
16198;DHT22;8206;51.440;6.914;2022-10-18T04:41:35;15.80;1.00
16198;DHT22;8206;51.440;6.914;2022-10-18T04:44:02;15.70;1.00
16198;DHT22;8206;51.440;6.914;2022-10-18T04:46:30;15.80;1.00
16198;DHT22;8206;51.440;6.914;2022-10-18T04:48:57;15.70;1.00
16198;DHT22;8206;51.440;6.914;2022-10-18T04:51:25;15.80;1.00
16198;DHT22;8206;51.440;6.914;2022-10-18T04:53:52;15.70;1.00
16198;DHT22;8206;51.440;6.914;2022-10-18T04:56:19;15.80;1.00
16198;DHT22;8206;51.440;6.914;2022-10-18T04:58:45;15.80;99.90
16198;DHT22;8206;51.440;6.914;2022-10-18T05:01:12;15.80;45.10
16198;DHT22;8206;51.440;6.914;2022-10-18T05:03:40;15.80;1.00
16198;DHT22;8206;51.440;6.914;2022-10-18T05:06:07;15.70;1.00
16198;DHT22;8206;51.440;6.914;2022-10-18T05:08:34;15.80;1.00
16198;DHT22;8206;51.440;6.914;2022-10-18T05:11:01;15.80;1.00
16198;DHT22;8206;51.440;6.914;2022-10-18T05:13:28;15.80;99.90
16198;DHT22;8206;51.440;6.914;2022-10-18T05:15:55;15.80;99.90
16198;DHT22;8206;51.440;6.914;2022-10-18T05:18:23;15.70;99.90
16198;DHT22;8206;51.440;6.914;2022-10-18T05:20:51;15.80;1.00
16198;DHT22;8206;51.440;6.914;2022-10-18T05:23:18;15.80;96.10
16198;DHT22;8206;51.440;6.914;2022-10-18T05:25:45;15.80;1.00
16198;DHT22;8206;51.440;6.914;2022-10-18T05:28:12;15.80;1.00
16198;DHT22;8206;51.440;6.914;2022-10-18T05:30:39;15.80;1.00
16198;DHT22;8206;51.440;6.914;2022-10-18T05:33:06;15.80;1.00
16198;DHT22;8206;51.440;6.914;2022-10-18T05:35:33;15.80;1.00
16198;DHT22;8206;51.440;6.914;2022-10-18T05:38:03;15.80;99.90
16198;DHT22;8206;51.440;6.914;2022-10-18T05:40:30;15.80;99.90
16198;DHT22;8206;51.440;6.914;2022-10-18T05:42:57;15.80;1.00
16198;DHT22;8206;51.440;6.914;2022-10-18T05:45:23;15.80;1.00
16198;DHT22;8206;51.440;6.914;2022-10-18T05:47:50;15.80;1.00
16198;DHT22;8206;51.440;6.914;2022-10-18T05:50:17;15.80;99.90
16198;DHT22;8206;51.440;6.914;2022-10-18T05:52:44;15.80;1.00
16198;DHT22;8206;51.440;6.914;2022-10-18T05:55:12;15.80;10.40
16198;DHT22;8206;51.440;6.914;2022-10-18T05:57:38;15.80;94.20
16198;DHT22;8206;51.440;6.914;2022-10-18T06:00:06;15.80;1.00
16198;DHT22;8206;51.440;6.914;2022-10-18T06:02:33;15.80;99.90
16198;DHT22;8206;51.440;6.914;2022-10-18T06:05:00;15.70;1.00
16198;DHT22;8206;51.440;6.914;2022-10-18T06:07:26;15.70;99.90
16198;DHT22;8206;51.440;6.914;2022-10-18T06:09:53;15.70;99.90
16198;DHT22;8206;51.440;6.914;2022-10-18T06:12:21;15.70;1.00
16198;DHT22;8206;51.440;6.914;2022-10-18T06:14:48;15.70;1.00
16198;DHT22;8206;51.440;6.914;2022-10-18T06:17:15;15.70;99.90
16198;DHT22;8206;51.440;6.914;2022-10-18T06:19:41;15.70;99.90
16198;DHT22;8206;51.440;6.914;2022-10-18T06:22:08;15.70;99.90
16198;DHT22;8206;51.440;6.914;2022-10-18T06:24:35;15.70;1.00
16198;DHT22;8206;51.440;6.914;2022-10-18T06:27:02;15.60;1.00
16198;DHT22;8206;51.440;6.914;2022-10-18T06:29:34;15.70;99.90
16198;DHT22;8206;51.440;6.914;2022-10-18T06:32:01;15.70;99.90
16198;DHT22;8206;51.440;6.914;2022-10-18T06:34:28;15.70;1.80
16198;DHT22;8206;51.440;6.914;2022-10-18T06:36:55;15.70;99.90
16198;DHT22;8206;51.440;6.914;2022-10-18T06:39:22;15.80;99.90
16198;DHT22;8206;51.440;6.914;2022-10-18T06:41:48;15.70;1.00
16198;DHT22;8206;51.440;6.914;2022-10-18T06:44:15;15.80;99.90
16198;DHT22;8206;51.440;6.914;2022-10-18T06:46:45;15.80;99.90
16198;DHT22;8206;51.440;6.914;2022-10-18T06:49:12;15.80;1.00
16198;DHT22;8206;51.440;6.914;2022-10-18T06:51:40;15.80;99.90
16198;DHT22;8206;51.440;6.914;2022-10-18T06:54:07;15.90;99.90
16198;DHT22;8206;51.440;6.914;2022-10-18T06:56:34;15.90;1.00
16198;DHT22;8206;51.440;6.914;2022-10-18T06:59:01;15.90;99.90
16198;DHT22;8206;51.440;6.914;2022-10-18T07:01:28;15.90;1.00
16198;DHT22;8206;51.440;6.914;2022-10-18T07:03:56;15.80;1.00
16198;DHT22;8206;51.440;6.914;2022-10-18T07:06:24;15.80;99.90
16198;DHT22;8206;51.440;6.914;2022-10-18T07:08:51;15.70;1.00
16198;DHT22;8206;51.440;6.914;2022-10-18T07:11:20;15.80;1.00
16198;DHT22;8206;51.440;6.914;2022-10-18T07:13:48;15.90;99.90
16198;DHT22;8206;51.440;6.914;2022-10-18T07:16:17;15.90;93.60
16198;DHT22;8206;51.440;6.914;2022-10-18T07:18:45;16.00;99.90
16198;DHT22;8206;51.440;6.914;2022-10-18T07:21:15;16.20;1.00
16198;DHT22;8206;51.440;6.914;2022-10-18T07:23:43;16.30;1.00
16198;DHT22;8206;51.440;6.914;2022-10-18T07:26:12;16.40;1.00
16198;DHT22;8206;51.440;6.914;2022-10-18T07:28:40;16.50;1.00
16198;DHT22;8206;51.440;6.914;2022-10-18T07:31:07;16.60;99.90
16198;DHT22;8206;51.440;6.914;2022-10-18T07:33:34;16.70;1.00
16198;DHT22;8206;51.440;6.914;2022-10-18T07:36:03;16.80;1.00
16198;DHT22;8206;51.440;6.914;2022-10-18T07:38:32;16.90;1.00
16198;DHT22;8206;51.440;6.914;2022-10-18T07:41:00;16.80;1.00
16198;DHT22;8206;51.440;6.914;2022-10-18T07:43:28;16.80;99.90
16198;DHT22;8206;51.440;6.914;2022-10-18T07:45:57;16.80;1.00
16198;DHT22;8206;51.440;6.914;2022-10-18T07:48:24;16.80;1.00
16198;DHT22;8206;51.440;6.914;2022-10-18T07:50:51;16.80;1.00
16198;DHT22;8206;51.440;6.914;2022-10-18T07:53:18;16.80;1.00
16198;DHT22;8206;51.440;6.914;2022-10-18T07:55:46;16.90;99.90
16198;DHT22;8206;51.440;6.914;2022-10-18T07:58:13;16.90;99.90
16198;DHT22;8206;51.440;6.914;2022-10-18T08:00:39;17.00;99.90
16198;DHT22;8206;51.440;6.914;2022-10-18T08:03:06;17.10;99.90
16198;DHT22;8206;51.440;6.914;2022-10-18T08:05:33;17.00;1.00
16198;DHT22;8206;51.440;6.914;2022-10-18T08:08:00;16.90;1.00
16198;DHT22;8206;51.440;6.914;2022-10-18T08:10:26;16.90;1.00
16198;DHT22;8206;51.440;6.914;2022-10-18T08:12:54;16.90;1.00
16198;DHT22;8206;51.440;6.914;2022-10-18T08:15:21;16.80;1.00
16198;DHT22;8206;51.440;6.914;2022-10-18T08:17:50;16.80;1.00
16198;DHT22;8206;51.440;6.914;2022-10-18T08:20:16;16.70;1.00
16198;DHT22;8206;51.440;6.914;2022-10-18T08:22:43;16.80;1.00
16198;DHT22;8206;51.440;6.914;2022-10-18T08:25:10;16.70;1.00
16198;DHT22;8206;51.440;6.914;2022-10-18T08:27:37;16.60;1.00
16198;DHT22;8206;51.440;6.914;2022-10-18T08:30:06;16.50;1.00
16198;DHT22;8206;51.440;6.914;2022-10-18T08:32:33;16.40;99.90
16198;DHT22;8206;51.440;6.914;2022-10-18T08:35:00;16.50;99.90
16198;DHT22;8206;51.440;6.914;2022-10-18T08:37:27;16.40;99.90
16198;DHT22;8206;51.440;6.914;2022-10-18T08:39:54;16.50;1.00
16198;DHT22;8206;51.440;6.914;2022-10-18T08:42:35;16.60;99.90
16198;DHT22;8206;51.440;6.914;2022-10-18T08:45:09;16.80;99.90
16198;DHT22;8206;51.440;6.914;2022-10-18T08:47:39;16.90;47.90
16198;DHT22;8206;51.440;6.914;2022-10-18T08:50:11;17.20;1.00
16198;DHT22;8206;51.440;6.914;2022-10-18T08:52:43;17.20;1.00
16198;DHT22;8206;51.440;6.914;2022-10-18T08:55:16;17.10;1.00
16198;DHT22;8206;51.440;6.914;2022-10-18T08:57:45;17.10;1.00
16198;DHT22;8206;51.440;6.914;2022-10-18T09:00:16;16.90;1.00
16198;DHT22;8206;51.440;6.914;2022-10-18T09:02:56;16.90;1.00
16198;DHT22;8206;51.440;6.914;2022-10-18T09:05:33;17.10;1.00
16198;DHT22;8206;51.440;6.914;2022-10-18T09:11:09;17.00;1.00
16198;DHT22;8206;51.440;6.914;2022-10-18T09:13:59;16.90;1.00
16198;DHT22;8206;51.440;6.914;2022-10-18T09:16:37;16.70;1.00
16198;DHT22;8206;51.440;6.914;2022-10-18T09:19:11;16.70;1.00
16198;DHT22;8206;51.440;6.914;2022-10-18T09:21:48;16.70;1.00
16198;DHT22;8206;51.440;6.914;2022-10-18T09:24:21;16.60;1.00
16198;DHT22;8206;51.440;6.914;2022-10-18T09:26:57;16.70;1.00
16198;DHT22;8206;51.440;6.914;2022-10-18T09:29:39;16.90;1.00
16198;DHT22;8206;51.440;6.914;2022-10-18T09:32:20;17.00;1.00
16198;DHT22;8206;51.440;6.914;2022-10-18T09:34:52;17.10;1.00
16198;DHT22;8206;51.440;6.914;2022-10-18T09:37:22;17.00;1.00
16198;DHT22;8206;51.440;6.914;2022-10-18T09:40:03;17.00;1.00
16198;DHT22;8206;51.440;6.914;2022-10-18T09:42:36;17.00;1.00
16198;DHT22;8206;51.440;6.914;2022-10-18T09:45:22;16.90;1.00
16198;DHT22;8206;51.440;6.914;2022-10-18T09:47:59;16.80;1.00
16198;DHT22;8206;51.440;6.914;2022-10-18T09:50:31;17.00;1.00
16198;DHT22;8206;51.440;6.914;2022-10-18T09:53:06;17.10;1.00
16198;DHT22;8206;51.440;6.914;2022-10-18T09:55:41;17.20;1.00
16198;DHT22;8206;51.440;6.914;2022-10-18T09:58:11;17.50;1.00
16198;DHT22;8206;51.440;6.914;2022-10-18T10:00:45;17.60;1.00
16198;DHT22;8206;51.440;6.914;2022-10-18T10:03:14;17.80;1.00
16198;DHT22;8206;51.440;6.914;2022-10-18T10:05:41;18.10;1.00
16198;DHT22;8206;51.440;6.914;2022-10-18T10:08:09;18.40;1.00
16198;DHT22;8206;51.440;6.914;2022-10-18T10:10:38;18.50;1.00
16198;DHT22;8206;51.440;6.914;2022-10-18T10:13:13;18.50;1.00
16198;DHT22;8206;51.440;6.914;2022-10-18T10:15:45;18.20;1.00
16198;DHT22;8206;51.440;6.914;2022-10-18T10:18:19;18.20;1.00
16198;DHT22;8206;51.440;6.914;2022-10-18T10:20:49;18.20;1.00
16198;DHT22;8206;51.440;6.914;2022-10-18T10:23:20;18.20;1.00
16198;DHT22;8206;51.440;6.914;2022-10-18T10:25:52;18.20;1.00
16198;DHT22;8206;51.440;6.914;2022-10-18T10:28:22;18.10;1.00
16198;DHT22;8206;51.440;6.914;2022-10-18T10:30:49;17.80;1.00
16198;DHT22;8206;51.440;6.914;2022-10-18T10:33:33;17.70;1.00
16198;DHT22;8206;51.440;6.914;2022-10-18T10:36:01;17.70;1.00
16198;DHT22;8206;51.440;6.914;2022-10-18T10:38:29;17.90;1.00
16198;DHT22;8206;51.440;6.914;2022-10-18T10:40:56;18.10;1.00
16198;DHT22;8206;51.440;6.914;2022-10-18T10:43:25;18.20;1.00
16198;DHT22;8206;51.440;6.914;2022-10-18T10:45:58;18.40;1.00
16198;DHT22;8206;51.440;6.914;2022-10-18T10:48:27;18.80;1.00
16198;DHT22;8206;51.440;6.914;2022-10-18T10:51:00;19.00;1.00
16198;DHT22;8206;51.440;6.914;2022-10-18T10:53:40;19.00;1.00
16198;DHT22;8206;51.440;6.914;2022-10-18T10:56:21;18.70;1.00
16198;DHT22;8206;51.440;6.914;2022-10-18T10:58:50;18.40;1.00
16198;DHT22;8206;51.440;6.914;2022-10-18T11:01:29;18.10;1.00
16198;DHT22;8206;51.440;6.914;2022-10-18T11:03:58;17.80;1.00
16198;DHT22;8206;51.440;6.914;2022-10-18T11:06:34;17.70;1.00
16198;DHT22;8206;51.440;6.914;2022-10-18T11:09:08;17.40;1.00
16198;DHT22;8206;51.440;6.914;2022-10-18T11:11:41;17.30;1.00
16198;DHT22;8206;51.440;6.914;2022-10-18T11:14:16;17.30;1.00
16198;DHT22;8206;51.440;6.914;2022-10-18T11:16:52;17.30;1.00
16198;DHT22;8206;51.440;6.914;2022-10-18T11:19:37;17.50;1.00
16198;DHT22;8206;51.440;6.914;2022-10-18T11:22:11;17.80;1.00
16198;DHT22;8206;51.440;6.914;2022-10-18T11:24:40;18.10;1.00
16198;DHT22;8206;51.440;6.914;2022-10-18T11:27:11;18.40;1.00
16198;DHT22;8206;51.440;6.914;2022-10-18T11:29:55;18.40;1.00
16198;DHT22;8206;51.440;6.914;2022-10-18T11:32:31;18.50;1.00
16198;DHT22;8206;51.440;6.914;2022-10-18T11:35:11;18.50;1.00
16198;DHT22;8206;51.440;6.914;2022-10-18T11:37:54;18.20;1.00
16198;DHT22;8206;51.440;6.914;2022-10-18T11:40:36;18.00;1.00
16198;DHT22;8206;51.440;6.914;2022-10-18T11:43:10;17.70;1.00
16198;DHT22;8206;51.440;6.914;2022-10-18T11:45:43;17.70;1.00
16198;DHT22;8206;51.440;6.914;2022-10-18T11:48:30;17.70;1.00
16198;DHT22;8206;51.440;6.914;2022-10-18T11:51:08;17.70;1.00
16198;DHT22;8206;51.440;6.914;2022-10-18T11:53:43;17.80;1.00
16198;DHT22;8206;51.440;6.914;2022-10-18T11:56:22;18.00;1.00
16198;DHT22;8206;51.440;6.914;2022-10-18T11:59:01;18.20;1.00
16198;DHT22;8206;51.440;6.914;2022-10-18T12:01:35;18.10;1.00
16198;DHT22;8206;51.440;6.914;2022-10-18T12:04:07;18.00;1.00
16198;DHT22;8206;51.440;6.914;2022-10-18T12:06:39;17.90;1.00
16198;DHT22;8206;51.440;6.914;2022-10-18T12:09:16;17.80;1.00
16198;DHT22;8206;51.440;6.914;2022-10-18T12:11:46;17.60;1.00
16198;DHT22;8206;51.440;6.914;2022-10-18T12:14:22;17.60;1.00
16198;DHT22;8206;51.440;6.914;2022-10-18T12:16:49;17.60;1.00
16198;DHT22;8206;51.440;6.914;2022-10-18T12:19:19;17.60;1.00
16198;DHT22;8206;51.440;6.914;2022-10-18T12:21:46;17.60;1.00
16198;DHT22;8206;51.440;6.914;2022-10-18T12:24:18;17.60;1.00
16198;DHT22;8206;51.440;6.914;2022-10-18T12:26:49;17.60;1.00
16198;DHT22;8206;51.440;6.914;2022-10-18T12:29:20;17.60;1.00
16198;DHT22;8206;51.440;6.914;2022-10-18T12:31:51;17.70;1.00
16198;DHT22;8206;51.440;6.914;2022-10-18T12:34:30;17.80;1.00
16198;DHT22;8206;51.440;6.914;2022-10-18T12:37:19;17.90;1.00
16198;DHT22;8206;51.440;6.914;2022-10-18T12:39:54;18.00;1.00
16198;DHT22;8206;51.440;6.914;2022-10-18T12:42:24;18.00;1.00
16198;DHT22;8206;51.440;6.914;2022-10-18T12:45:00;18.20;1.00
16198;DHT22;8206;51.440;6.914;2022-10-18T12:47:28;18.40;1.00
16198;DHT22;8206;51.440;6.914;2022-10-18T12:49:57;18.50;1.00
16198;DHT22;8206;51.440;6.914;2022-10-18T12:52:25;18.40;1.00
16198;DHT22;8206;51.440;6.914;2022-10-18T12:55:27;18.30;1.00
16198;DHT22;8206;51.440;6.914;2022-10-18T13:00:52;18.40;1.00
16198;DHT22;8206;51.440;6.914;2022-10-18T13:03:40;18.30;1.00
16198;DHT22;8206;51.440;6.914;2022-10-18T13:06:07;18.20;1.00
16198;DHT22;8206;51.440;6.914;2022-10-18T13:08:40;18.00;1.00
16198;DHT22;8206;51.440;6.914;2022-10-18T13:11:32;17.80;1.00
16198;DHT22;8206;51.440;6.914;2022-10-18T13:16:56;17.60;1.00
16198;DHT22;8206;51.440;6.914;2022-10-18T13:19:29;17.60;1.00
16198;DHT22;8206;51.440;6.914;2022-10-18T13:22:19;17.60;1.00
16198;DHT22;8206;51.440;6.914;2022-10-18T13:24:58;17.70;1.00
16198;DHT22;8206;51.440;6.914;2022-10-18T13:27:37;17.80;1.00
16198;DHT22;8206;51.440;6.914;2022-10-18T13:30:32;17.70;1.00
16198;DHT22;8206;51.440;6.914;2022-10-18T13:33:18;17.80;1.00
16198;DHT22;8206;51.440;6.914;2022-10-18T13:35:50;17.80;1.00
16198;DHT22;8206;51.440;6.914;2022-10-18T13:38:46;17.90;1.00
16198;DHT22;8206;51.440;6.914;2022-10-18T13:41:23;17.90;1.00
16198;DHT22;8206;51.440;6.914;2022-10-18T13:44:10;18.00;1.00
16198;DHT22;8206;51.440;6.914;2022-10-18T13:50:30;18.00;1.00
16198;DHT22;8206;51.440;6.914;2022-10-18T13:53:15;17.90;1.00
16198;DHT22;8206;51.440;6.914;2022-10-18T13:55:56;17.80;1.00
16198;DHT22;8206;51.440;6.914;2022-10-18T13:58:35;17.80;1.00
16198;DHT22;8206;51.440;6.914;2022-10-18T14:01:16;17.70;1.00
16198;DHT22;8206;51.440;6.914;2022-10-18T14:04:29;17.70;1.00
16198;DHT22;8206;51.440;6.914;2022-10-18T14:07:02;17.70;1.00
16198;DHT22;8206;51.440;6.914;2022-10-18T14:09:34;17.60;1.00
16198;DHT22;8206;51.440;6.914;2022-10-18T14:12:15;17.60;1.00
16198;DHT22;8206;51.440;6.914;2022-10-18T14:14:50;17.50;1.00
16198;DHT22;8206;51.440;6.914;2022-10-18T14:17:27;17.50;1.00
16198;DHT22;8206;51.440;6.914;2022-10-18T14:19:57;17.60;1.00
16198;DHT22;8206;51.440;6.914;2022-10-18T14:22:28;17.50;1.00
16198;DHT22;8206;51.440;6.914;2022-10-18T14:24:57;17.50;1.00
16198;DHT22;8206;51.440;6.914;2022-10-18T14:27:25;17.40;1.00
16198;DHT22;8206;51.440;6.914;2022-10-18T14:30:07;17.40;1.00
16198;DHT22;8206;51.440;6.914;2022-10-18T14:32:36;17.30;1.00
16198;DHT22;8206;51.440;6.914;2022-10-18T14:35:03;17.30;1.00
16198;DHT22;8206;51.440;6.914;2022-10-18T14:37:33;17.20;1.00
16198;DHT22;8206;51.440;6.914;2022-10-18T14:40:00;17.20;1.00
16198;DHT22;8206;51.440;6.914;2022-10-18T14:42:27;17.20;1.00
16198;DHT22;8206;51.440;6.914;2022-10-18T14:44:54;17.20;1.00
16198;DHT22;8206;51.440;6.914;2022-10-18T14:47:23;17.20;1.00
16198;DHT22;8206;51.440;6.914;2022-10-18T14:49:52;17.20;1.00
16198;DHT22;8206;51.440;6.914;2022-10-18T14:52:23;17.20;1.00
16198;DHT22;8206;51.440;6.914;2022-10-18T14:54:53;17.20;1.00
16198;DHT22;8206;51.440;6.914;2022-10-18T14:57:24;17.10;1.00
16198;DHT22;8206;51.440;6.914;2022-10-18T14:59:54;17.10;1.00
16198;DHT22;8206;51.440;6.914;2022-10-18T15:02:24;17.10;1.00
16198;DHT22;8206;51.440;6.914;2022-10-18T15:04:58;17.00;1.00
16198;DHT22;8206;51.440;6.914;2022-10-18T15:07:25;17.00;1.00
16198;DHT22;8206;51.440;6.914;2022-10-18T15:09:55;16.90;1.00
16198;DHT22;8206;51.440;6.914;2022-10-18T15:12:23;16.90;99.90
16198;DHT22;8206;51.440;6.914;2022-10-18T15:14:51;16.80;99.90
16198;DHT22;8206;51.440;6.914;2022-10-18T15:17:21;16.80;1.00
16198;DHT22;8206;51.440;6.914;2022-10-18T15:19:56;16.80;99.90
16198;DHT22;8206;51.440;6.914;2022-10-18T15:22:25;16.80;1.00
16198;DHT22;8206;51.440;6.914;2022-10-18T15:25:15;16.70;99.90
16198;DHT22;8206;51.440;6.914;2022-10-18T15:27:44;16.70;1.00
16198;DHT22;8206;51.440;6.914;2022-10-18T15:30:16;16.60;99.90
16198;DHT22;8206;51.440;6.914;2022-10-18T15:32:49;16.60;1.00
16198;DHT22;8206;51.440;6.914;2022-10-18T15:35:21;16.60;1.00
16198;DHT22;8206;51.440;6.914;2022-10-18T15:37:48;16.50;1.00
16198;DHT22;8206;51.440;6.914;2022-10-18T15:40:33;16.50;99.90
16198;DHT22;8206;51.440;6.914;2022-10-18T15:43:02;16.40;99.90
16198;DHT22;8206;51.440;6.914;2022-10-18T15:45:34;16.40;99.90
16198;DHT22;8206;51.440;6.914;2022-10-18T15:48:24;16.30;1.00
16198;DHT22;8206;51.440;6.914;2022-10-18T15:50:53;16.10;99.90
16198;DHT22;8206;51.440;6.914;2022-10-18T15:53:41;16.20;99.90
16198;DHT22;8206;51.440;6.914;2022-10-18T15:56:12;16.10;1.00
16198;DHT22;8206;51.440;6.914;2022-10-18T15:58:51;16.00;1.00
16198;DHT22;8206;51.440;6.914;2022-10-18T16:01:20;16.00;99.90
16198;DHT22;8206;51.440;6.914;2022-10-18T16:03:48;15.90;1.00
16198;DHT22;8206;51.440;6.914;2022-10-18T16:06:17;15.80;1.00
16198;DHT22;8206;51.440;6.914;2022-10-18T16:08:45;15.80;99.90
16198;DHT22;8206;51.440;6.914;2022-10-18T16:11:14;15.70;1.00
16198;DHT22;8206;51.440;6.914;2022-10-18T16:13:41;15.70;1.00
16198;DHT22;8206;51.440;6.914;2022-10-18T16:16:11;15.60;1.00
16198;DHT22;8206;51.440;6.914;2022-10-18T16:18:39;15.50;1.00
16198;DHT22;8206;51.440;6.914;2022-10-18T16:21:14;15.30;1.00
16198;DHT22;8206;51.440;6.914;2022-10-18T16:23:43;15.10;1.00
16198;DHT22;8206;51.440;6.914;2022-10-18T16:26:10;15.10;1.00
16198;DHT22;8206;51.440;6.914;2022-10-18T16:28:37;14.90;1.00
16198;DHT22;8206;51.440;6.914;2022-10-18T16:31:06;14.80;1.00
16198;DHT22;8206;51.440;6.914;2022-10-18T16:33:33;14.70;1.00
16198;DHT22;8206;51.440;6.914;2022-10-18T16:36:01;14.50;1.00
16198;DHT22;8206;51.440;6.914;2022-10-18T16:38:31;14.40;1.00